createdAt,value
2022-09-22T00:00:45.496Z,70.36
2022-09-22T00:06:17.028Z,69.44
2022-09-22T00:11:48.867Z,69.17
2022-09-22T00:17:20.266Z,69.01
2022-09-22T00:22:51.725Z,68.81
2022-09-22T00:28:23.808Z,69.31
2022-09-22T00:33:55.127Z,69.18
2022-09-22T00:39:26.412Z,68.76
2022-09-22T00:44:57.862Z,68.69
2022-09-22T00:50:29.422Z,68.52
2022-09-22T00:56:00.720Z,68.42
2022-09-22T01:01:32.312Z,68.26
2022-09-22T01:07:03.462Z,68.19
2022-09-22T01:12:34.912Z,68.30
2022-09-22T01:18:06.681Z,68.39
2022-09-22T01:23:38.472Z,69.41
2022-09-22T01:29:10.184Z,70.22
2022-09-22T01:34:41.482Z,71.08
2022-09-22T01:40:13.100Z,71.49
2022-09-22T01:45:44.745Z,71.67
2022-09-22T01:51:16.309Z,71.34
2022-09-22T01:56:47.620Z,72.24
2022-09-22T02:02:18.847Z,71.59
2022-09-22T02:07:50.293Z,71.44
2022-09-22T02:13:22.098Z,71.30
2022-09-22T02:18:53.675Z,71.06
2022-09-22T02:24:25.007Z,70.98
2022-09-22T02:29:56.273Z,71.26
2022-09-22T02:35:27.548Z,70.92
2022-09-22T02:40:59.036Z,71.19
2022-09-22T02:46:31.291Z,71.27
2022-09-22T02:52:02.421Z,71.37
2022-09-22T02:57:33.992Z,71.20
2022-09-22T03:03:05.678Z,71.45
2022-09-22T03:08:36.840Z,71.64
2022-09-22T03:14:08.527Z,71.48
2022-09-22T03:19:40.230Z,71.23
2022-09-22T03:25:12.141Z,71.12
2022-09-22T03:36:13.712Z,71.24
2022-09-22T03:41:45.582Z,71.42
2022-09-22T03:47:17.772Z,71.57
2022-09-22T03:52:49.711Z,71.75
2022-09-22T03:58:21.563Z,71.79
2022-09-22T04:03:53.304Z,71.81
2022-09-22T04:09:25.253Z,72.57
2022-09-22T04:14:56.693Z,72.59
2022-09-22T04:20:28.009Z,73.01
2022-09-22T04:25:59.551Z,72.93
2022-09-22T04:31:30.997Z,72.88
2022-09-22T04:37:02.593Z,72.92
2022-09-22T04:42:34.496Z,73.86
2022-09-22T04:48:06.352Z,73.66
2022-09-22T04:53:37.711Z,73.48
2022-09-22T04:59:08.945Z,73.41
2022-09-22T05:04:40.313Z,73.33
2022-09-22T05:10:12.383Z,73.95
2022-09-22T05:15:43.858Z,74.25
2022-09-22T05:21:15.573Z,74.24
2022-09-22T05:26:46.879Z,73.80
2022-09-22T05:32:18.585Z,73.61
2022-09-22T05:37:50.081Z,73.67
2022-09-22T05:43:21.659Z,73.21
2022-09-22T05:48:53.656Z,72.79
2022-09-22T05:54:25.095Z,72.75
2022-09-22T05:59:57.021Z,72.75
2022-09-22T06:05:28.602Z,72.03
2022-09-22T06:11:00.252Z,70.40
2022-09-22T06:16:31.602Z,67.16
2022-09-22T06:22:03.014Z,65.72
2022-09-22T06:27:34.824Z,61.33
2022-09-22T06:33:06.448Z,60.33
2022-09-22T06:38:37.805Z,58.59
2022-09-22T06:49:38.926Z,53.40
2022-09-22T06:55:10.303Z,52.31
2022-09-22T07:00:41.879Z,49.61
2022-09-22T07:06:17.990Z,48.96
2022-09-22T07:11:44.690Z,46.04
2022-09-22T07:17:15.960Z,45.77
2022-09-22T07:22:47.327Z,44.13
2022-09-22T07:28:18.592Z,43.87
2022-09-22T07:33:49.953Z,42.49
2022-09-22T07:39:21.319Z,40.53
2022-09-22T07:44:53.263Z,39.41
2022-09-22T07:50:25.266Z,40.15
2022-09-22T07:55:56.555Z,40.10
2022-09-22T08:01:27.909Z,39.64
2022-09-22T08:06:59.499Z,39.02
2022-09-22T08:12:30.764Z,38.65
2022-09-22T08:18:02.142Z,40.08
2022-09-22T08:23:33.824Z,40.07
2022-09-22T08:29:05.170Z,39.57
2022-09-22T08:34:36.543Z,40.44
2022-09-22T08:40:08.487Z,40.42
2022-09-22T08:45:39.987Z,40.23
2022-09-22T08:56:41.158Z,42.18
2022-09-22T09:02:12.675Z,42.78
2022-09-22T09:18:43.150Z,46.37
2022-09-22T09:29:46.687Z,47.89
2022-09-22T09:35:18.255Z,49.93
2022-09-22T09:40:49.489Z,50.14
2022-09-22T09:46:21.012Z,50.80
2022-09-22T09:51:52.706Z,51.06
2022-09-22T09:57:31.107Z,51.75
2022-09-22T10:02:55.808Z,51.72
2022-09-22T10:08:27.155Z,51.83
2022-09-22T10:13:58.561Z,50.22
2022-09-22T10:24:59.495Z,50.35
2022-09-22T10:30:31.139Z,50.97
2022-09-22T10:36:05.453Z,50.40
2022-09-22T10:41:34.710Z,49.68
2022-09-22T10:47:06.022Z,49.37
2022-09-22T10:52:37.781Z,48.88
2022-09-22T10:58:09.585Z,48.67
2022-09-22T11:03:41.332Z,46.92
2022-09-22T11:09:13.283Z,46.64
2022-09-22T11:14:44.960Z,47.62
2022-09-22T11:20:17.316Z,47.63
2022-09-22T11:25:49.036Z,47.85
2022-09-22T11:31:20.771Z,45.93
2022-09-22T11:36:52.334Z,46.23
2022-09-22T11:42:23.980Z,45.93
2022-09-22T11:47:55.737Z,46.14
2022-09-22T11:53:27.781Z,46.41
2022-09-22T11:58:59.358Z,46.49
2022-09-22T12:04:31.023Z,46.42
2022-09-22T12:06:43.236Z,0.00
2022-09-22T12:12:14.279Z,46.61
2022-09-22T12:17:45.782Z,46.67
2022-09-22T12:23:17.015Z,46.52
2022-09-22T12:28:48.309Z,46.68
2022-09-22T12:34:19.739Z,45.17
2022-09-22T12:39:51.141Z,45.74
2022-09-22T12:45:22.422Z,44.47
2022-09-22T12:50:54.085Z,44.23
2022-09-22T12:56:25.357Z,44.33
2022-09-22T13:01:56.763Z,43.97
2022-09-22T13:07:28.254Z,44.10
2022-09-22T13:12:59.897Z,44.00
2022-09-22T13:18:31.672Z,44.35
2022-09-22T13:24:02.855Z,43.72
2022-09-22T13:29:34.200Z,43.53
2022-09-22T13:35:05.579Z,43.53
2022-09-22T13:40:37.093Z,43.07
2022-09-22T13:46:08.352Z,43.35
2022-09-22T13:51:39.733Z,43.31
2022-09-22T13:57:11.399Z,42.54
2022-09-22T14:02:42.959Z,42.78
2022-09-22T14:08:17.204Z,42.93
2022-09-22T14:13:46.394Z,42.51
2022-09-22T14:19:18.045Z,40.82
2022-09-22T14:24:49.508Z,41.65
2022-09-22T14:30:21.487Z,42.20
2022-09-22T14:35:52.712Z,42.19
2022-09-22T14:46:53.530Z,41.73
2022-09-22T14:54:46.314Z,40.61
2022-09-22T15:00:17.574Z,40.74
2022-09-22T15:05:48.722Z,41.40
2022-09-22T15:11:20.018Z,41.03
2022-09-22T15:16:51.308Z,40.71
2022-09-22T15:22:22.595Z,41.96
2022-09-22T15:27:54.052Z,41.23
2022-09-22T15:33:25.751Z,40.61
2022-09-22T15:38:57.495Z,40.84
2022-09-22T15:44:29.062Z,40.84
2022-09-22T15:50:00.497Z,41.29
2022-09-22T15:55:32.198Z,41.47
2022-09-22T16:01:04.377Z,40.97
2022-09-22T16:06:35.887Z,41.75
2022-09-22T16:12:07.915Z,42.78
2022-09-22T16:17:39.480Z,43.78
2022-09-22T16:23:11.505Z,43.92
2022-09-22T16:28:43.003Z,43.98
2022-09-22T16:34:14.203Z,44.13
2022-09-22T16:39:45.483Z,44.26
2022-09-22T16:45:16.923Z,44.21
2022-09-22T16:50:48.260Z,44.38
2022-09-22T16:56:20.031Z,44.44
2022-09-22T17:01:51.815Z,44.85
2022-09-22T17:07:23.148Z,45.18
2022-09-22T17:12:54.573Z,45.74
2022-09-22T17:18:26.151Z,46.36
2022-09-22T17:23:58.292Z,47.01
2022-09-22T17:29:29.929Z,47.43
2022-09-22T17:35:01.851Z,47.87
2022-09-22T17:40:33.547Z,48.05
2022-09-22T17:46:05.502Z,48.69
2022-09-22T17:51:37.085Z,48.84
2022-09-22T17:57:08.833Z,49.60
2022-09-22T18:02:40.454Z,50.07
2022-09-22T18:08:12.216Z,50.37
2022-09-22T18:13:43.877Z,50.69
2022-09-22T18:19:15.580Z,51.03
2022-09-22T18:24:46.779Z,51.30
2022-09-22T18:30:18.174Z,51.70
2022-09-22T18:35:49.519Z,51.95
2022-09-22T18:41:21.364Z,52.08
2022-09-22T18:46:53.105Z,52.35
2022-09-22T18:52:24.602Z,52.31
2022-09-22T18:57:56.170Z,52.38
2022-09-22T19:03:27.910Z,53.92
2022-09-22T19:08:59.401Z,53.65
2022-09-22T19:14:30.833Z,53.62
2022-09-22T19:20:02.250Z,53.57
2022-09-22T19:25:34.144Z,53.68
2022-09-22T19:31:05.822Z,53.77
2022-09-22T19:36:37.445Z,53.76
2022-09-22T19:42:09.220Z,54.08
2022-09-22T19:47:41.059Z,55.04
2022-09-22T19:53:12.593Z,55.54
2022-09-22T20:04:14.037Z,56.26
2022-09-22T20:09:45.699Z,56.24
2022-09-22T20:15:17.422Z,56.72
2022-09-22T20:20:51.070Z,56.77
2022-09-22T20:26:21.438Z,57.84
2022-09-22T20:31:53.435Z,57.80
2022-09-22T20:42:56.768Z,58.16
2022-09-22T20:54:00.120Z,58.38
2022-09-22T20:59:31.947Z,58.60
2022-09-22T21:05:04.170Z,58.56
2022-09-22T21:10:36.119Z,58.48
2022-09-22T21:16:07.764Z,58.48
2022-09-22T21:21:39.332Z,58.51
2022-09-22T21:27:10.768Z,58.61
2022-09-22T21:32:42.500Z,58.81
2022-09-22T21:38:14.250Z,58.90
2022-09-22T21:49:15.155Z,60.66
2022-09-22T21:54:47.005Z,62.55
2022-09-22T22:00:31.966Z,62.60
2022-09-22T22:05:50.415Z,63.28
2022-09-22T22:11:22.195Z,65.64
2022-09-22T22:16:53.935Z,65.33
2022-09-22T22:27:54.809Z,65.52
2022-09-22T22:33:26.703Z,66.78
2022-09-22T22:38:58.202Z,66.12
2022-09-22T22:44:30.063Z,65.04
2022-09-22T22:50:01.618Z,65.12
2022-09-22T22:55:33.588Z,65.24
2022-09-22T23:01:05.131Z,64.85
2022-09-22T23:06:36.786Z,64.39
2022-09-22T23:12:08.312Z,64.27
2022-09-22T23:17:39.968Z,64.01
2022-09-22T23:23:11.444Z,63.90
2022-09-22T23:28:43.138Z,64.90
2022-09-22T23:34:14.979Z,64.72
2022-09-22T23:39:46.798Z,64.39
2022-09-22T23:45:18.430Z,64.39
2022-09-22T23:50:50.320Z,65.97
2022-09-22T23:56:22.303Z,66.04
